Time;durP1;ratioP1;P1;durP2;ratioP2;P2;SDS_P1;SDS_P2;PMS_P1;PMS_P2;Temp;Humidity;BMP_temperature;BMP_pressure;BME280_temperature;BME280_humidity;BME280_pressure;Samples;Min_cycle;Max_cycle;Signal;HPM_P1;HPM_P2
2022/10/02 06:54:17;;;;;;;2.80;1.95;;;;;;;13.18;72.82;97499.09;1797286;78;23014;-78
2022/10/02 06:57:10;;;;;;;2.90;1.57;;;;;;;13.10;73.71;97507.44;1768760;80;20988;-77
2022/10/02 07:00:16;;;;;;;2.52;1.50;;;;;;;13.04;73.75;97509.07;1760431;80;21007;-77
2022/10/02 07:03:08;;;;;;;2.25;1.80;;;;;;;13.05;73.93;97508.13;1762122;80;21427;-79
2022/10/02 07:06:05;;;;;;;1.65;1.52;;;;;;;13.05;73.55;97512.12;1720579;81;20972;-79
2022/10/02 07:08:40;;;;;;;1.72;1.20;;;;;;;13.04;72.59;97511.73;1719936;81;20996;-79
2022/10/02 07:11:24;;;;;;;2.12;1.30;;;;;;;13.03;72.38;97509.53;1722450;81;20996;-79
2022/10/02 07:14:45;;;;;;;1.37;1.20;;;;;;;13.05;72.04;97516.95;1729000;81;21082;-78
2022/10/02 07:17:50;;;;;;;1.72;1.30;;;;;;;13.05;71.39;97524.09;1722245;81;20961;-79
2022/10/02 07:20:34;;;;;;;1.55;1.17;;;;;;;13.02;71.82;97527.76;1719209;81;21355;-78
2022/10/02 07:23:11;;;;;;;1.20;1.10;;;;;;;13.06;72.48;97529.80;1709157;83;21048;-78
2022/10/02 07:26:07;;;;;;;3.45;1.15;;;;;;;13.16;72.44;97531.09;1713866;83;21017;-78
2022/10/02 07:28:51;;;;;;;1.62;1.40;;;;;;;13.32;72.07;97528.56;1715083;82;21073;-78
2022/10/02 07:31:56;;;;;;;3.85;1.32;;;;;;;13.51;72.36;97526.37;1728534;82;20996;-78
2022/10/02 07:34:46;;;;;;;1.35;1.12;;;;;;;13.64;70.95;97529.73;1730423;82;20957;-77
2022/10/02 07:38:02;;;;;;;2.47;1.30;;;;;;;13.76;70.38;97534.92;1663332;83;21426;-78
2022/10/02 07:41:08;;;;;;;1.75;1.15;;;;;;;13.87;69.78;97524.59;1721727;82;20993;-79
2022/10/02 07:44:10;;;;;;;2.08;1.05;;;;;;;14.00;69.21;97534.17;1723705;82;21005;-78
2022/10/02 07:47:08;;;;;;;1.50;1.25;;;;;;;14.04;68.13;97535.71;1732195;82;21019;-78
2022/10/02 07:50:01;;;;;;;3.58;1.50;;;;;;;14.03;68.07;97545.14;1689614;82;21406;-79
2022/10/02 07:53:00;;;;;;;2.25;1.10;;;;;;;13.98;67.58;97562.22;1703778;82;21468;-77
2022/10/02 07:55:28;;;;;;;2.50;1.50;;;;;;;13.88;68.24;97560.96;1638593;85;21090;-78
2022/10/02 07:58:18;;;;;;;1.82;1.30;;;;;;;13.73;67.95;97582.55;1705829;82;20975;-77
2022/10/02 08:00:53;;;;;;;1.25;1.10;;;;;;;13.63;69.00;97569.30;1697338;82;20972;-78
2022/10/02 08:03:28;;;;;;;1.57;1.27;;;;;;;13.56;68.85;97564.73;1725520;80;20980;-78
2022/10/02 08:05:58;;;;;;;1.45;1.20;;;;;;;13.49;69.62;97560.17;1708577;80;20997;-78
2022/10/02 08:08:51;;;;;;;2.95;1.40;;;;;;;13.47;70.45;97566.05;1726182;80;21027;-77
2022/10/02 08:11:29;;;;;;;1.27;1.05;;;;;;;13.50;70.82;97563.70;1737472;80;20976;-78
2022/10/02 08:14:05;;;;;;;3.17;1.20;;;;;;;13.44;71.37;97565.70;1709189;80;21469;-78
2022/10/02 08:16:40;;;;;;;1.57;1.20;;;;;;;13.39;72.33;97568.17;1725562;80;21037;-78
2022/10/02 08:19:17;;;;;;;1.87;1.50;;;;;;;13.31;73.20;97568.09;1728455;80;21032;-78
2022/10/02 08:22:00;;;;;;;2.75;2.00;;;;;;;13.23;73.82;97569.37;1709976;80;21371;-79
2022/10/02 08:24:40;;;;;;;3.40;2.00;;;;;;;12.98;74.98;97575.38;1734715;80;21438;-79
2022/10/02 08:27:17;;;;;;;2.40;2.10;;;;;;;12.82;76.96;97572.56;1716320;80;20992;-79
2022/10/02 08:29:58;;;;;;;2.83;2.25;;;;;;;12.73;77.32;97564.54;1709258;80;20992;-78
2022/10/02 08:32:30;;;;;;;4.42;2.70;;;;;;;12.75;79.48;97568.47;1725535;80;21017;-78
2022/10/02 08:34:56;;;;;;;2.12;1.85;;;;;;;12.75;79.58;97561.33;1721303;80;21529;-78
2022/10/02 08:38:00;;;;;;;2.70;1.90;;;;;;;12.72;79.85;97565.48;1713546;83;21015;-78
2022/10/02 08:40:55;;;;;;;3.20;2.00;;;;;;;12.71;80.05;97566.88;1693150;84;20997;-78
2022/10/02 08:43:55;;;;;;;2.10;1.57;;;;;;;12.72;80.21;97568.14;1713410;83;21008;-79
2022/10/02 08:46:49;;;;;;;2.05;1.82;;;;;;;12.85;80.63;97575.09;1669404;83;20981;-78
2022/10/02 08:50:02;;;;;;;2.70;1.85;;;;;;;12.92;81.03;97572.53;1693339;84;20984;-78
2022/10/02 08:52:43;;;;;;;4.03;1.90;;;;;;;12.89;81.28;97578.01;1724244;80;20992;-78
2022/10/02 08:55:21;;;;;;;4.17;2.12;;;;;;;12.96;81.53;97580.38;1736614;80;20990;-77
2022/10/02 08:58:32;;;;;;;8.65;7.15;;;;;;;13.01;81.33;97571.72;1697496;80;21425;-76
2022/10/02 09:01:22;;;;;;;8.03;5.97;;;;;;;13.10;81.34;97575.28;1747973;80;20966;-76
2022/10/02 09:04:25;;;;;;;4.15;2.90;;;;;;;13.14;81.18;97579.98;1754799;80;20996;-76
2022/10/02 09:07:47;;;;;;;2.20;2.00;;;;;;;13.23;81.13;97570.24;1737924;80;21000;-76
2022/10/02 09:10:57;;;;;;;2.37;2.10;;;;;;;13.31;80.50;97568.55;1736453;80;20945;-76
2022/10/02 09:14:19;;;;;;;2.37;2.12;;;;;;;13.40;80.73;97562.78;1733581;80;21452;-76
2022/10/02 09:17:17;;;;;;;2.95;2.27;;;;;;;13.55;79.37;97560.35;1716415;84;21035;-77
2022/10/02 09:20:37;;;;;;;2.27;2.08;;;;;;;13.64;79.34;97561.23;1731362;80;20999;-78
2022/10/02 09:23:28;;;;;;;2.90;2.20;;;;;;;13.78;78.75;97565.87;1760046;80;20953;-78
2022/10/02 09:26:15;;;;;;;3.37;2.08;;;;;;;13.90;78.48;97559.56;1725106;80;20991;-78
2022/10/02 09:29:21;;;;;;;2.95;2.00;;;;;;;14.05;78.44;97553.45;1746104;80;21003;-78
2022/10/02 09:32:33;;;;;;;1.85;1.75;;;;;;;14.20;76.80;97565.11;1752555;80;20972;-77
2022/10/02 09:35:59;;;;;;;2.15;1.80;;;;;;;14.31;76.81;97559.23;1757118;80;21373;-78
2022/10/02 09:38:50;;;;;;;;;;;;;;;14.44;76.32;97557.24;1755296;80;20977;-77
2022/10/02 09:41:59;;;;;;;1.90;1.67;;;;;;;14.52;73.90;97547.92;1741815;80;20105;-78
2022/10/02 09:44:42;;;;;;;2.42;1.65;;;;;;;14.68;75.77;97544.89;1735244;80;20958;-78
2022/10/02 09:47:52;;;;;;;2.55;1.55;;;;;;;14.78;73.19;97543.48;1701220;84;20951;-78
2022/10/02 09:50:33;;;;;;;1.50;1.40;;;;;;;15.00;72.64;97547.17;1716466;83;20993;-78
2022/10/02 09:53:57;;;;;;;2.00;1.50;;;;;;;15.23;69.75;97533.53;1713027;83;20993;-77
2022/10/02 09:56:52;;;;;;;3.90;1.30;;;;;;;15.31;69.25;97544.61;1709161;80;20996;-77
2022/10/02 09:59:43;;;;;;;;;;;;;;;15.34;67.34;97543.12;1711730;80;20969;-77
2022/10/02 10:02:38;;;;;;;1.20;1.10;;;;;;;15.38;66.73;97532.66;1709172;80;20323;-78
2022/10/02 10:05:54;;;;;;;1.45;1.22;;;;;;;15.37;66.23;97538.92;1735721;80;20972;-77
2022/10/02 10:08:41;;;;;;;1.82;1.25;;;;;;;15.40;64.78;97551.27;1714507;81;20995;-78
2022/10/02 10:11:48;;;;;;;2.70;1.27;;;;;;;15.45;64.86;97553.20;1704860;81;20979;-79
2022/10/02 10:14:38;;;;;;;3.27;1.30;;;;;;;15.50;64.18;97568.48;1721627;80;21001;-78
2022/10/02 10:17:54;;;;;;;1.25;1.15;;;;;;;15.49;63.03;97556.55;1750565;80;21407;-78
2022/10/02 10:20:43;;;;;;;1.30;1.20;;;;;;;15.50;64.10;97552.47;1716131;80;20996;-77
2022/10/02 10:23:49;;;;;;;2.85;1.22;;;;;;;15.67;64.58;97554.17;1709096;80;21001;-77
2022/10/02 10:26:48;;;;;;;1.72;1.37;;;;;;;15.70;62.64;97548.63;1708864;80;21020;-77
2022/10/02 10:29:45;;;;;;;1.98;1.32;;;;;;;15.81;61.83;97555.16;1742095;80;21008;-77
2022/10/02 10:32:38;;;;;;;1.75;1.52;;;;;;;16.03;62.92;97544.59;1694648;84;21000;-77
2022/10/02 10:35:29;;;;;;;4.97;1.80;;;;;;;16.18;62.46;97545.02;1716960;80;20961;-78
2022/10/02 10:38:51;;;;;;;1.57;1.47;;;;;;;16.35;62.42;97545.80;1708516;80;21063;-77
2022/10/02 10:41:40;;;;;;;4.33;2.08;;;;;;;16.68;61.27;97522.42;1726148;80;21406;-77
2022/10/02 10:44:38;;;;;;;10.70;8.55;;;;;;;16.88;61.46;97538.11;1715890;80;21437;-78
2022/10/02 10:47:22;;;;;;;3.12;1.60;;;;;;;16.97;61.59;97525.95;1710738;80;21040;-77
2022/10/02 10:50:07;;;;;;;;;;;;;;;16.87;61.75;97526.16;1742750;80;20969;-77
2022/10/02 10:53:03;;;;;;;1.85;1.37;;;;;;;16.88;61.51;97527.41;1717346;80;20129;-77
2022/10/02 10:56:11;;;;;;;1.20;1.10;;;;;;;16.84;59.75;97534.38;1743339;80;21013;-78
2022/10/02 10:59:41;;;;;;;2.15;1.10;;;;;;;16.83;61.96;97532.19;1731706;81;21044;-77
2022/10/02 11:02:30;;;;;;;1.17;1.07;;;;;;;16.83;61.61;97530.85;1724937;80;21023;-77
2022/10/02 11:05:51;;;;;;;2.30;1.20;;;;;;;16.84;60.08;97528.55;1746131;80;21093;-77
2022/10/02 11:08:42;;;;;;;1.40;1.20;;;;;;;16.88;61.64;97527.41;1731065;80;20959;-78
2022/10/02 11:11:35;;;;;;;1.12;1.00;;;;;;;16.97;60.72;97521.94;1725935;80;21028;-77
2022/10/02 11:14:27;;;;;;;1.57;1.10;;;;;;;17.04;59.38;97522.91;1763764;80;21000;-77
2022/10/02 11:17:11;;;;;;;2.20;1.10;;;;;;;17.35;59.19;97523.64;1734438;80;21446;-77
2022/10/02 11:19:48;;;;;;;3.05;1.20;;;;;;;17.44;56.72;97518.98;1749128;80;20993;-77
2022/10/02 11:22:54;;;;;;;1.20;1.10;;;;;;;17.66;57.34;97514.41;1725114;80;20978;-77
2022/10/02 11:26:01;;;;;;;1.70;1.07;;;;;;;17.71;57.76;97512.78;1733999;80;21011;-78
2022/10/02 11:28:59;;;;;;;3.22;2.58;;;;;;;17.58;56.09;97510.53;1735851;80;21421;-77
2022/10/02 11:31:49;;;;;;;2.10;1.00;;;;;;;17.41;55.22;97518.71;1724680;80;20991;-78
2022/10/02 11:34:47;;;;;;;1.77;1.20;;;;;;;17.87;54.27;97502.38;1719485;82;21033;-78
2022/10/02 11:37:37;;;;;;;1.57;1.15;;;;;;;18.22;52.62;97500.47;1724956;80;21414;-77
2022/10/02 11:40:30;;;;;;;1.10;1.00;;;;;;;18.29;53.08;97507.62;1741503;80;20960;-77
2022/10/02 11:43:30;;;;;;;1.30;0.80;;;;;;;18.25;52.71;97497.59;1725027;80;20991;-77
2022/10/02 11:46:39;;;;;;;1.32;1.10;;;;;;;18.32;51.59;97492.66;1694457;82;21426;-77
2022/10/02 11:49:30;;;;;;;1.22;0.80;;;;;;;18.17;52.00;97496.78;1725397;82;20974;-78
2022/10/02 11:52:20;;;;;;;1.32;1.00;;;;;;;17.94;52.40;97493.80;1718687;80;21039;-78
2022/10/02 11:55:01;;;;;;;2.08;0.80;;;;;;;17.87;53.74;97486.28;1710142;80;21009;-77
2022/10/02 11:57:44;;;;;;;2.05;1.00;;;;;;;17.72;53.75;97485.52;1713553;84;20992;-77
2022/10/02 12:00:32;;;;;;;2.50;0.90;;;;;;;17.63;53.96;97478.93;1696258;84;21004;-78
2022/10/02 12:03:30;;;;;;;1.32;1.22;;;;;;;17.52;53.78;97485.03;1713486;84;20980;-78
2022/10/02 12:06:41;;;;;;;1.30;0.82;;;;;;;17.39;53.37;97487.63;1720805;80;21511;-78
2022/10/02 12:09:55;;;;;;;1.47;0.98;;;;;;;17.25;53.11;97481.38;1735018;80;20981;-78
2022/10/02 12:12:39;;;;;;;3.15;1.65;;;;;;;17.02;53.76;97482.81;1713611;83;20973;-78
2022/10/02 12:15:33;;;;;;;2.65;1.20;;;;;;;16.89;53.55;97480.94;1713418;83;20992;-77
2022/10/02 12:18:26;;;;;;;2.02;1.10;;;;;;;16.83;54.51;97486.70;1749211;80;21033;-77
2022/10/02 12:28:12;;;;;;;1.67;1.10;;;;;;;16.58;56.22;97470.86;1721286;80;21473;-78
2022/10/02 12:31:01;;;;;;;4.92;1.47;;;;;;;16.58;56.30;97473.53;1724870;80;21036;-78
2022/10/02 12:33:58;;;;;;;5.08;1.45;;;;;;;16.49;56.05;97475.44;1709247;80;21016;-78
2022/10/02 12:36:46;;;;;;;2.67;1.20;;;;;;;16.38;57.16;97468.07;1743630;80;20972;-78
2022/10/02 12:39:50;;;;;;;1.95;1.10;;;;;;;16.36;56.56;97465.98;1731791;80;20969;-77
2022/10/02 12:42:42;;;;;;;2.72;1.42;;;;;;;16.38;57.54;97462.72;1709613;80;21469;-79
2022/10/02 12:45:30;;;;;;;3.45;1.40;;;;;;;16.37;56.61;97465.02;1708065;80;21000;-78
2022/10/02 12:48:44;;;;;;;2.77;1.17;;;;;;;16.34;57.73;97458.05;1712063;80;21016;-78
2022/10/02 12:51:39;;;;;;;1.65;1.17;;;;;;;16.40;58.20;97454.61;1745385;80;21450;-78
2022/10/02 12:54:14;;;;;;;2.00;1.00;;;;;;;16.50;58.02;97451.74;1723576;81;21045;-79
2022/10/02 12:56:58;;;;;;;1.70;1.30;;;;;;;16.60;57.83;97446.66;1741025;80;21607;-79
2022/10/02 12:59:48;;;;;;;2.20;1.10;;;;;;;16.74;57.52;97444.47;1747936;80;21038;-79
2022/10/02 13:03:04;;;;;;;1.50;1.20;;;;;;;16.73;56.17;97426.70;1727325;80;21003;-79
2022/10/02 13:06:00;;;;;;;1.92;1.10;;;;;;;16.60;56.41;97432.81;1771057;80;21004;-79
2022/10/02 13:09:05;;;;;;;1.62;1.17;;;;;;;16.88;56.02;97422.16;1727309;80;20995;-79
2022/10/02 13:11:46;;;;;;;3.60;1.20;;;;;;;17.07;55.72;97427.69;1754902;80;21065;-79
2022/10/02 13:14:37;;;;;;;2.05;1.00;;;;;;;17.37;55.69;97422.61;1745557;80;20997;-79
2022/10/02 13:17:30;;;;;;;2.45;1.20;;;;;;;17.50;56.09;97415.94;1727300;80;20988;-77
2022/10/02 13:20:34;;;;;;;1.95;1.70;;;;;;;17.51;55.35;97423.88;1727438;80;20947;-77
2022/10/02 13:23:46;;;;;;;1.55;1.07;;;;;;;17.47;56.19;97426.85;1734382;80;21028;-78
2022/10/02 13:26:36;;;;;;;1.87;1.22;;;;;;;17.47;56.22;97430.87;1727011;80;21015;-78
2022/10/02 13:29:34;;;;;;;3.47;1.32;;;;;;;17.48;55.67;97416.04;1712465;82;21050;-77
2022/10/02 13:32:23;;;;;;;14.05;6.80;;;;;;;17.59;55.10;97422.48;1728280;80;20992;-79
2022/10/02 13:35:10;;;;;;;2.30;1.20;;;;;;;17.67;55.80;97424.17;1750012;80;20958;-77
2022/10/02 13:37:52;;;;;;;2.02;1.12;;;;;;;17.63;54.22;97415.50;1735581;80;21017;-77
2022/10/02 13:40:33;;;;;;;2.90;1.10;;;;;;;17.84;53.38;97412.77;1735699;80;20962;-77
2022/10/02 13:43:28;;;;;;;1.87;1.17;;;;;;;18.27;52.76;97411.66;1716617;83;21043;-77
2022/10/02 13:46:17;;;;;;;2.22;0.85;;;;;;;17.94;51.43;97410.70;1738566;80;21004;-79
2022/10/02 13:49:09;;;;;;;1.70;1.00;;;;;;;17.58;52.82;97411.41;1732167;80;20997;-79
2022/10/02 13:52:12;;;;;;;2.05;0.85;;;;;;;17.72;53.25;97416.68;1726079;80;21492;-79
2022/10/02 13:55:08;;;;;;;1.40;0.80;;;;;;;18.12;52.62;97409.09;1717399;80;21060;-79
2022/10/02 13:58:15;;;;;;;12.10;1.17;;;;;;;18.73;51.24;97404.83;1706801;84;20985;-79
2022/10/02 14:01:08;;;;;;;2.75;1.00;;;;;;;19.52;49.32;97402.22;1713538;84;20953;-77
2022/10/02 14:03:55;;;;;;;0.93;0.80;;;;;;;19.32;47.13;97403.70;1707893;84;21038;-77
2022/10/02 14:06:33;;;;;;;2.55;1.00;;;;;;;18.85;47.81;97405.77;1742091;80;21031;-77
2022/10/02 14:09:25;;;;;;;2.67;0.70;;;;;;;18.85;47.81;97405.77;1712449;80;20961;-76
2022/10/02 14:12:41;;;;;;;1.42;0.70;;;;;;;19.58;45.81;97408.94;1713411;84;21028;-76
2022/10/02 14:15:25;;;;;;;3.58;1.00;;;;;;;19.58;45.81;97408.94;1699175;83;20968;-77
2022/10/02 14:18:36;;;;;;;0.85;0.80;;;;;;;19.03;46.06;97413.41;1680852;85;21503;-77
2022/10/02 14:21:27;;;;;;;0.75;0.70;;;;;;;18.54;47.40;97406.15;1645584;85;21026;-77
2022/10/02 14:24:58;;;;;;;4.42;2.25;;;;;;;18.50;48.43;97410.02;1724700;80;20984;-77
2022/10/02 14:27:01;;;;;;;2.90;1.35;;;;;;;18.35;48.81;97403.91;1714848;82;21086;-77
2022/10/02 14:29:54;;;;;;;1.35;0.88;;;;;;;18.54;49.74;97400.78;1744183;81;21423;-77
2022/10/02 14:32:32;;;;;;;1.27;1.00;;;;;;;18.47;48.28;97405.73;1734433;82;20965;-78
2022/10/02 14:35:36;;;;;;;1.50;0.70;;;;;;;18.32;49.46;97402.80;1709054;82;20976;-78
2022/10/02 14:38:25;;;;;;;2.52;0.90;;;;;;;18.30;50.08;97401.56;1737423;82;21016;-78
2022/10/02 14:40:58;;;;;;;1.17;0.68;;;;;;;18.19;49.12;97406.84;1734999;81;21024;-78
2022/10/02 14:43:45;;;;;;;1.00;0.70;;;;;;;18.09;49.87;97401.75;1723645;82;21025;-79
2022/10/02 14:46:39;;;;;;;2.33;0.70;;;;;;;18.01;49.86;97396.39;1709296;82;21454;-79
2022/10/02 14:49:26;;;;;;;1.62;0.72;;;;;;;17.90;49.42;97393.61;1726593;80;20961;-78
2022/10/02 14:52:21;;;;;;;2.05;0.60;;;;;;;17.65;48.89;97393.46;1713491;80;20988;-77
2022/10/02 14:55:33;;;;;;;2.37;0.70;;;;;;;17.41;49.54;97389.30;1741460;80;20982;-78
2022/10/02 14:58:55;;;;;;;0.88;0.60;;;;;;;17.08;49.19;97420.91;1726360;80;21015;-78
2022/10/02 15:01:27;;;;;;;0.95;0.50;;;;;;;16.85;50.22;97396.45;1724833;80;21003;-79
2022/10/02 15:04:22;;;;;;;1.47;0.70;;;;;;;16.69;50.92;97395.73;1738893;80;21000;-78
2022/10/02 15:06:59;;;;;;;2.85;0.80;;;;;;;16.66;51.45;97402.15;1733145;80;21036;-79
2022/10/02 15:09:44;;;;;;;2.02;0.80;;;;;;;16.63;51.85;97404.54;1724964;80;21551;-78
2022/10/02 15:12:15;;;;;;;3.08;0.80;;;;;;;16.58;51.61;97405.31;1724272;80;21043;-78
2022/10/02 15:15:08;;;;;;;3.20;0.70;;;;;;;16.54;52.64;97401.11;1728507;80;21059;-78
2022/10/02 15:17:55;;;;;;;2.27;1.42;;;;;;;16.44;52.42;97409.34;1759375;80;20989;-78
2022/10/02 15:21:02;;;;;;;1.37;0.80;;;;;;;16.32;52.74;97407.80;1725154;80;21055;-78
2022/10/02 15:23:40;;;;;;;2.58;0.60;;;;;;;16.18;53.01;97401.98;1732128;80;22201;-78
2022/10/02 15:26:18;;;;;;;8.25;5.10;;;;;;;15.98;53.43;97403.70;1736411;82;21007;-76
2022/10/02 15:28:59;;;;;;;17.77;10.10;;;;;;;15.89;53.82;97408.61;1742850;80;20988;-78
2022/10/02 15:31:57;;;;;;;4.15;1.52;;;;;;;15.78;54.62;97418.60;1757095;80;21045;-79
2022/10/02 15:34:45;;;;;;;3.10;1.25;;;;;;;15.58;55.64;97409.13;1725016;80;20999;-76
2022/10/02 15:37:44;;;;;;;1.72;1.07;;;;;;;15.44;55.84;97424.16;1725009;80;21015;-76
2022/10/02 15:40:28;;;;;;;1.35;0.70;;;;;;;15.33;56.32;97426.60;1724894;80;21058;-76
2022/10/02 15:43:18;;;;;;;2.35;0.90;;;;;;;15.15;56.56;97422.70;1724385;81;21012;-76
2022/10/02 15:45:56;;;;;;;2.52;1.07;;;;;;;15.02;57.14;97428.34;1752039;80;20972;-78
2022/10/02 15:48:46;;;;;;;2.85;1.17;;;;;;;14.93;57.41;97425.73;1744362;80;20997;-76
2022/10/02 15:51:32;;;;;;;1.80;0.88;;;;;;;14.87;57.81;97430.09;1746101;80;20976;-77
2022/10/02 15:54:24;;;;;;;6.58;3.95;;;;;;;14.76;58.35;97434.69;1724654;80;20991;-77
2022/10/02 15:57:06;;;;;;;3.35;1.50;;;;;;;14.68;59.03;97433.75;1686574;82;21018;-77
2022/10/02 16:00:02;;;;;;;2.05;0.85;;;;;;;14.61;59.65;97434.55;1703203;80;20996;-77
2022/10/02 16:03:08;;;;;;;2.92;1.02;;;;;;;14.56;59.69;97435.28;1711562;80;21509;-77
2022/10/02 16:05:49;;;;;;;1.42;1.00;;;;;;;14.48;60.15;97438.38;1720518;80;21004;-77
2022/10/02 16:08:47;;;;;;;5.83;2.55;;;;;;;14.41;60.72;97433.45;1719583;80;20984;-78
2022/10/02 16:11:39;;;;;;;1.12;0.90;;;;;;;14.32;60.63;97436.16;1713439;84;21020;-76
2022/10/02 16:14:21;;;;;;;1.98;1.10;;;;;;;14.19;61.25;97437.27;1705873;84;21028;-76
2022/10/02 16:17:27;;;;;;;3.85;1.35;;;;;;;14.08;61.91;97440.03;1720437;80;21498;-76
2022/10/02 16:20:45;;;;;;;3.42;1.75;;;;;;;14.01;61.60;97439.11;1714884;80;21028;-77
2022/10/02 16:23:45;;;;;;;2.40;1.00;;;;;;;13.90;61.97;97443.20;1737642;80;21012;-77
2022/10/02 16:26:37;;;;;;;5.15;1.72;;;;;;;13.77;62.55;97446.09;1709218;80;21101;-77
2022/10/02 16:29:33;;;;;;;3.37;1.82;;;;;;;13.68;62.71;97440.78;1731510;80;21000;-77
2022/10/02 16:32:11;;;;;;;5.47;3.12;;;;;;;13.55;63.27;97437.43;1708305;80;21040;-77
2022/10/02 16:34:55;;;;;;;5.30;3.60;;;;;;;13.41;63.90;97434.08;1733849;80;20981;-77
2022/10/02 16:37:28;;;;;;;5.95;3.27;;;;;;;13.27;65.32;97438.77;1716012;80;21441;-77
2022/10/02 16:40:01;;;;;;;9.20;3.30;;;;;;;13.09;65.31;97447.66;1736267;80;20954;-77
2022/10/02 16:42:38;;;;;;;4.33;3.08;;;;;;;12.93;66.20;97451.94;1736248;80;21557;-78
2022/10/02 16:45:43;;;;;;;6.80;2.30;;;;;;;12.82;66.30;97458.70;1708996;80;21043;-77
2022/10/02 16:48:17;;;;;;;4.25;2.55;;;;;;;12.64;67.30;97454.63;1713326;80;20961;-77
2022/10/02 16:51:12;;;;;;;5.70;3.40;;;;;;;12.49;67.71;97461.50;1689482;84;20988;-77
2022/10/02 16:54:02;;;;;;;3.95;1.87;;;;;;;12.35;67.94;97458.16;1700783;84;21453;-77
2022/10/02 16:56:33;;;;;;;5.42;2.15;;;;;;;12.20;68.61;97462.39;1693831;84;21032;-78
2022/10/02 16:59:20;;;;;;;4.85;2.00;;;;;;;12.06;68.47;97463.86;1713464;84;20981;-77
2022/10/02 17:01:58;;;;;;;5.37;2.30;;;;;;;11.96;68.89;97459.37;1752237;80;21021;-77
2022/10/02 17:05:05;;;;;;;4.65;2.02;;;;;;;11.84;69.48;97470.55;1717656;80;20997;-77
2022/10/02 17:07:56;;;;;;;4.33;2.00;;;;;;;11.74;69.68;97466.08;1708947;80;21056;-78
2022/10/02 17:10:57;;;;;;;4.45;2.37;;;;;;;11.61;70.54;97467.94;1731350;80;20960;-77
2022/10/02 17:13:57;;;;;;;11.35;4.17;;;;;;;11.51;71.14;97471.04;1709051;80;20984;-77
2022/10/02 17:16:52;;;;;;;6.53;3.12;;;;;;;11.37;71.42;97468.48;1713804;80;20964;-78
2022/10/02 17:19:36;;;;;;;3.98;2.85;;;;;;;11.28;71.90;97467.54;1724056;80;21411;-78
2022/10/02 17:22:10;;;;;;;4.97;2.80;;;;;;;11.14;72.68;97459.70;1691698;80;21039;-78
2022/10/02 17:24:49;;;;;;;4.45;2.30;;;;;;;11.06;73.33;97464.45;1688874;82;21026;-77
2022/10/02 17:27:41;;;;;;;3.65;2.25;;;;;;;11.01;72.93;97465.94;1738244;80;20994;-78
2022/10/02 17:30:25;;;;;;;8.30;3.50;;;;;;;10.98;73.19;97467.41;1715778;80;21473;-78
2022/10/02 17:33:15;;;;;;;8.15;2.83;;;;;;;10.93;73.67;97456.96;1749327;80;21360;-78
2022/10/02 17:36:00;;;;;;;5.87;2.27;;;;;;;10.94;74.06;97465.80;1715833;80;21012;-77
2022/10/02 17:38:45;;;;;;;5.10;2.12;;;;;;;10.94;74.20;97457.39;1745422;80;20995;-77
2022/10/02 17:41:52;;;;;;;3.72;1.77;;;;;;;10.91;75.05;97458.83;1730379;80;20969;-77
2022/10/02 17:44:32;;;;;;;2.42;1.70;;;;;;;10.92;75.67;97461.88;1714957;80;20996;-77
2022/10/02 17:47:20;;;;;;;4.00;1.85;;;;;;;10.94;75.87;97459.16;1711861;80;21028;-77
2022/10/02 17:50:00;;;;;;;11.05;2.40;;;;;;;10.94;76.07;97461.37;1713395;84;21426;-77
2022/10/02 17:58:43;;;;;;;3.65;2.00;;;;;;;11.04;76.54;97457.03;1724512;80;21019;-78
2022/10/02 18:01:18;;;;;;;3.98;1.90;;;;;;;11.08;76.53;97462.13;1714122;80;20998;-78
2022/10/02 18:04:08;;;;;;;2.47;1.92;;;;;;;11.14;76.17;97470.77;1729053;80;21038;-78
2022/10/02 18:07:16;;;;;;;5.72;2.92;;;;;;;11.15;75.94;97459.22;1715598;80;20985;-78
2022/10/02 18:10:08;;;;;;;6.90;1.60;;;;;;;11.15;75.61;97453.47;1709211;80;20969;-78
2022/10/02 18:12:40;;;;;;;5.55;1.70;;;;;;;11.15;75.42;97464.08;1718217;80;21008;-78
2022/10/02 18:15:30;;;;;;;5.17;1.82;;;;;;;11.13;75.14;97463.73;1736962;80;21417;-78
2022/10/02 18:18:20;;;;;;;26.17;15.30;;;;;;;11.13;74.92;97459.28;1711159;80;20992;-78
2022/10/02 18:21:04;;;;;;;6.37;1.90;;;;;;;11.13;74.68;97454.45;1728461;80;21003;-78
2022/10/02 18:24:07;;;;;;;4.47;1.50;;;;;;;11.08;74.56;97452.84;1708681;80;21418;-78
2022/10/02 18:26:42;;;;;;;5.10;1.50;;;;;;;11.09;74.29;97457.70;1741364;80;20993;-78
2022/10/02 18:29:37;;;;;;;4.30;1.80;;;;;;;11.11;73.96;97457.61;1730267;80;21040;-78
2022/10/02 18:32:41;;;;;;;3.65;1.95;;;;;;;11.06;74.04;97466.65;1735545;80;21395;-77
2022/10/02 18:35:27;;;;;;;5.60;2.05;;;;;;;10.92;74.44;97461.88;1744224;80;21021;-76
2022/10/02 18:38:23;;;;;;;6.60;1.85;;;;;;;10.82;74.75;97464.48;1716483;80;20980;-76
2022/10/02 18:41:34;;;;;;;4.95;2.25;;;;;;;10.77;74.72;97471.31;1711380;80;21399;-78
2022/10/02 18:44:15;;;;;;;4.65;2.10;;;;;;;10.78;74.62;97463.75;1737785;80;21058;-77
2022/10/02 18:47:13;;;;;;;6.22;2.42;;;;;;;10.83;74.39;97472.39;1709328;80;21445;-77
2022/10/02 18:49:45;;;;;;;3.90;1.98;;;;;;;10.81;74.11;97466.27;1730488;80;20997;-77
2022/10/02 18:52:47;;;;;;;4.00;1.40;;;;;;;10.73;74.24;97471.47;1709032;80;21075;-79
2022/10/02 18:55:47;;;;;;;2.92;1.67;;;;;;;10.73;74.24;97465.72;1724482;80;21094;-78
2022/10/02 18:58:52;;;;;;;34.58;18.67;;;;;;;10.76;74.04;97458.95;1743428;80;20962;-77
2022/10/02 19:01:30;;;;;;;24.65;13.68;;;;;;;10.64;74.09;97468.27;1733497;80;21414;-77
2022/10/02 19:04:34;;;;;;;5.90;2.42;;;;;;;10.51;74.24;97471.83;1740773;80;21046;-78
2022/10/02 19:07:28;;;;;;;5.65;2.10;;;;;;;10.41;74.61;97477.91;1731836;80;20998;-77
2022/10/02 19:10:28;;;;;;;5.85;2.02;;;;;;;10.29;74.76;97475.25;1725273;81;21391;-78
2022/10/02 19:13:02;;;;;;;5.20;2.20;;;;;;;10.16;75.37;97480.14;1740149;80;21016;-78
2022/10/02 19:15:31;;;;;;;6.55;2.33;;;;;;;10.06;75.79;97478.75;1735641;80;20981;-81
2022/10/02 19:18:05;;;;;;;5.97;2.40;;;;;;;9.98;75.85;97475.05;1771128;80;21028;-79
2022/10/02 19:20:50;;;;;;;6.47;3.35;;;;;;;9.96;76.45;97480.84;1724128;80;20987;-78
2022/10/02 19:23:24;;;;;;;3.85;2.45;;;;;;;9.88;76.22;97477.59;1750151;80;21036;-79
2022/10/02 19:25:54;;;;;;;3.35;2.50;;;;;;;9.81;76.96;97479.62;1754686;80;20973;-77
2022/10/02 19:28:26;;;;;;;6.65;2.17;;;;;;;9.75;76.78;97487.74;1729628;80;21634;-77
2022/10/02 19:31:03;;;;;;;4.12;2.40;;;;;;;9.71;76.80;97483.50;1748182;80;20944;-76
2022/10/02 19:33:50;;;;;;;6.90;2.58;;;;;;;9.61;76.89;97485.58;1748579;80;21021;-77
2022/10/02 19:36:21;;;;;;;9.35;2.83;;;;;;;9.55;77.08;97483.16;1737915;80;21024;-77
2022/10/02 19:39:01;;;;;;;5.17;2.67;;;;;;;9.48;77.33;97484.66;1740045;80;21040;-77
2022/10/02 19:41:35;;;;;;;6.50;2.90;;;;;;;9.44;77.37;97482.18;1739440;82;21036;-77
2022/10/02 19:44:07;;;;;;;5.85;3.00;;;;;;;9.37;77.47;97474.45;1761343;80;21345;-77
2022/10/02 19:46:40;;;;;;;8.00;3.30;;;;;;;9.32;77.55;97473.75;1776715;80;20973;-77
2022/10/02 19:49:17;;;;;;;7.95;3.45;;;;;;;9.28;78.03;97478.72;1751588;80;21428;-75
2022/10/02 19:51:46;;;;;;;5.87;3.60;;;;;;;9.22;78.01;97474.97;1752130;80;20999;-76
2022/10/02 19:54:21;;;;;;;7.97;4.50;;;;;;;9.18;78.22;97468.05;1760021;80;20962;-77
2022/10/02 19:56:53;;;;;;;10.50;4.85;;;;;;;9.17;78.41;97466.32;1747997;80;21025;-76
2022/10/02 19:59:28;;;;;;;6.28;3.98;;;;;;;9.19;78.92;97463.16;1746601;80;20982;-77
2022/10/02 20:01:58;;;;;;;6.12;3.70;;;;;;;9.17;79.15;97453.95;1737332;80;21006;-77
2022/10/02 20:04:31;;;;;;;5.35;3.45;;;;;;;9.15;79.70;97458.88;1753486;80;21339;-77
2022/10/02 20:07:00;;;;;;;7.90;3.60;;;;;;;9.15;80.00;97462.40;1726921;82;21636;-79
2022/10/02 20:09:54;;;;;;;6.20;3.98;;;;;;;9.14;80.01;97458.48;1748650;80;21009;-78
2022/10/02 20:12:38;;;;;;;8.08;4.22;;;;;;;9.16;79.93;97451.34;1738991;81;21017;-78
2022/10/02 20:18:13;;;;;;;8.33;4.37;;;;;;;9.17;80.87;97459.23;1703229;84;20996;-77
2022/10/02 20:20:43;;;;;;;10.43;4.67;;;;;;;9.16;80.66;97460.16;1711010;84;20968;-77
2022/10/02 20:23:21;;;;;;;8.00;4.95;;;;;;;9.16;80.76;97466.77;1687555;84;21430;-77
2022/10/02 20:25:55;;;;;;;5.92;4.08;;;;;;;9.15;80.87;97470.77;1684379;84;20992;-77
2022/10/02 20:28:44;;;;;;;11.38;4.50;;;;;;;9.13;80.87;97469.97;1713629;82;21561;-79
2022/10/02 20:31:25;;;;;;;7.97;4.42;;;;;;;9.11;80.91;97465.58;1684453;84;21428;-78
2022/10/02 20:33:56;;;;;;;10.30;5.03;;;;;;;9.11;80.93;97473.50;1681784;84;21082;-78